Time;durP1;ratioP1;P1;durP2;ratioP2;P2;SDS_P1;SDS_P2;PMS_P1;PMS_P2;Temp;Humidity;BMP_temperature;BMP_pressure;BME280_temperature;BME280_humidity;BME280_pressure;Samples;Min_cycle;Max_cycle;Signal;HPM_P1;HPM_P2
2022/07/04 00:00:10;;;;;;;;;;;14.70;99.90;;;;;;5026553;28;19917;-70
2022/07/04 00:02:37;;;;;;;;;;;14.70;99.90;;;;;;5030958;28;19917;-70
2022/07/04 00:05:02;;;;;;;;;;;14.70;99.90;;;;;;5012168;28;19936;-70
2022/07/04 00:07:28;;;;;;;;;;;14.70;99.90;;;;;;5026143;28;20324;-70
2022/07/04 00:09:53;;;;;;;;;;;14.70;99.90;;;;;;5024938;28;19986;-70
2022/07/04 00:12:19;;;;;;;;;;;14.70;99.90;;;;;;5049879;28;19925;-70
2022/07/04 00:14:44;;;;;;;;;;;14.70;99.90;;;;;;5027870;28;19931;-70
2022/07/04 00:17:10;;;;;;;;;;;14.60;99.90;;;;;;5029968;28;19921;-70
2022/07/04 00:19:36;;;;;;;;;;;14.60;99.90;;;;;;5012053;28;19917;-70
2022/07/04 00:22:01;;;;;;;;;;;14.60;99.90;;;;;;5029037;28;19928;-70
2022/07/04 00:24:27;;;;;;;;;;;14.60;99.90;;;;;;5025042;28;20393;-70
2022/07/04 00:26:52;;;;;;;;;;;14.60;99.90;;;;;;5029805;28;20289;-70
2022/07/04 00:29:18;;;;;;;;;;;14.60;99.90;;;;;;5021105;28;19921;-70
2022/07/04 00:31:43;;;;;;;;;;;14.60;99.90;;;;;;5012636;28;20431;-70
2022/07/04 00:34:09;;;;;;;;;;;14.60;99.90;;;;;;5029346;28;20461;-70
2022/07/04 00:36:35;;;;;;;;;;;14.50;99.90;;;;;;5011935;28;20370;-70
2022/07/04 00:39:00;;;;;;;;;;;14.50;99.90;;;;;;5012462;28;19917;-70
2022/07/04 00:41:26;;;;;;;;;;;14.50;99.90;;;;;;5027336;28;19917;-70
2022/07/04 00:44:02;;;;;;;;;;;14.50;99.90;;;;;;5012243;28;19936;-70
2022/07/04 00:46:28;;;;;;;;;;;14.50;99.90;;;;;;5029099;28;19924;-70
2022/07/04 00:48:53;;;;;;;;;;;14.50;99.90;;;;;;5027405;28;19921;-70
2022/07/04 00:51:19;;;;;;;;;;;14.40;99.90;;;;;;5012078;28;19931;-70
2022/07/04 00:53:45;;;;;;;;;;;14.40;99.90;;;;;;5011621;28;19922;-70
2022/07/04 00:56:10;;;;;;;;;;;14.50;99.90;;;;;;5015405;28;19923;-70
2022/07/04 00:58:36;;;;;;;;;;;14.30;99.90;;;;;;5028854;28;19920;-70
2022/07/04 01:01:02;;;;;;;;;;;14.40;99.90;;;;;;5029951;28;19923;-70
2022/07/04 01:03:27;;;;;;;;;;;14.40;99.90;;;;;;5028196;28;19921;-70
2022/07/04 01:05:53;;;;;;;;;;;14.30;99.90;;;;;;5025861;28;19975;-70
2022/07/04 01:08:19;;;;;;;;;;;14.30;99.90;;;;;;5031660;28;19921;-71
2022/07/04 01:10:44;;;;;;;;;;;14.30;99.90;;;;;;5031181;28;19917;-70
2022/07/04 01:13:20;;;;;;;;;;;14.30;99.90;;;;;;4989538;28;19971;-70
2022/07/04 01:15:46;;;;;;;;;;;14.30;99.90;;;;;;5009305;28;20333;-70
2022/07/04 01:18:11;;;;;;;;;;;14.30;99.90;;;;;;5011509;28;20110;-70
2022/07/04 01:20:37;;;;;;;;;;;14.30;99.90;;;;;;5028350;28;20176;-70
2022/07/04 01:23:02;;;;;;;;;;;14.20;99.90;;;;;;5022604;28;19924;-70
2022/07/04 01:25:28;;;;;;;;;;;14.30;99.90;;;;;;5028580;28;19939;-70
2022/07/04 01:27:54;;;;;;;;;;;14.30;99.90;;;;;;5010507;28;20305;-70
2022/07/04 01:30:19;;;;;;;;;;;14.30;99.90;;;;;;4992576;28;19917;-71
2022/07/04 01:32:45;;;;;;;;;;;14.30;99.90;;;;;;5008930;28;20062;-70
2022/07/04 01:35:12;;;;;;;;;;;14.40;99.90;;;;;;5028585;28;20453;-70
2022/07/04 01:37:38;;;;;;;;;;;14.30;99.90;;;;;;5027838;28;19917;-70
2022/07/04 01:40:04;;;;;;;;;;;14.40;99.90;;;;;;5024248;28;19964;-70
2022/07/04 01:42:29;;;;;;;;;;;14.40;99.90;;;;;;5007713;28;19928;-70
2022/07/04 01:44:55;;;;;;;;;;;14.40;99.90;;;;;;5028606;28;19917;-70
2022/07/04 01:47:20;;;;;;;;;;;14.40;99.90;;;;;;5010674;28;20281;-70
2022/07/04 01:49:46;;;;;;;;;;;14.40;99.90;;;;;;5009390;28;20156;-70
2022/07/04 01:52:11;;;;;;;;;;;14.40;99.90;;;;;;5018741;28;19931;-70
2022/07/04 01:54:37;;;;;;;;;;;14.30;99.90;;;;;;5009195;28;20068;-70
2022/07/04 01:57:03;;;;;;;;;;;14.30;99.90;;;;;;5028283;28;20004;-70
2022/07/04 02:02:12;;;;;;;;;;;14.30;99.90;;;;;;5028136;28;20371;-70
2022/07/04 02:04:38;;;;;;;;;;;14.30;99.90;;;;;;5028486;28;20140;-70
2022/07/04 02:07:04;;;;;;;;;;;14.30;99.90;;;;;;5027498;28;19917;-70
2022/07/04 02:09:30;;;;;;;;;;;14.30;99.90;;;;;;5026354;28;20011;-70
2022/07/04 02:14:41;;;;;;;;;;;14.30;99.90;;;;;;5010078;28;20008;-70
2022/07/04 02:17:07;;;;;;;;;;;14.30;99.90;;;;;;5007512;28;19917;-70
2022/07/04 02:19:32;;;;;;;;;;;14.30;99.90;;;;;;5007632;28;19916;-70
2022/07/04 02:21:58;;;;;;;;;;;14.20;99.90;;;;;;5025924;28;19933;-70
2022/07/04 02:24:23;;;;;;;;;;;14.30;99.90;;;;;;5027284;28;19917;-70
2022/07/04 02:26:49;;;;;;;;;;;14.30;99.90;;;;;;5019596;28;19920;-70
2022/07/04 02:29:15;;;;;;;;;;;14.20;99.90;;;;;;5026798;28;19924;-70
2022/07/04 02:31:40;;;;;;;;;;;14.30;99.90;;;;;;5019267;28;19983;-70
2022/07/04 02:34:06;;;;;;;;;;;14.30;99.90;;;;;;5021950;28;19992;-70
2022/07/04 02:36:31;;;;;;;;;;;14.30;99.90;;;;;;4990339;28;19939;-70
2022/07/04 02:38:57;;;;;;;;;;;14.20;99.90;;;;;;5028027;28;20016;-70
2022/07/04 02:41:22;;;;;;;;;;;14.30;99.90;;;;;;5027412;28;19956;-70
2022/07/04 02:43:48;;;;;;;;;;;14.30;99.90;;;;;;5026719;28;20412;-70
2022/07/04 02:46:13;;;;;;;;;;;14.30;99.90;;;;;;5009266;28;19917;-70
2022/07/04 02:48:39;;;;;;;;;;;14.30;99.90;;;;;;5009927;28;19921;-70
2022/07/04 02:51:04;;;;;;;;;;;14.30;99.90;;;;;;5025752;28;19925;-70
2022/07/04 02:53:30;;;;;;;;;;;14.20;99.90;;;;;;5024605;28;20008;-70
2022/07/04 02:55:55;;;;;;;;;;;14.20;99.90;;;;;;5013416;28;19921;-70
2022/07/04 02:58:21;;;;;;;;;;;14.20;99.90;;;;;;5031132;28;20313;-70
2022/07/04 03:00:46;;;;;;;;;;;14.20;99.90;;;;;;5007177;28;19917;-70
2022/07/04 03:03:12;;;;;;;;;;;14.20;99.90;;;;;;5038282;28;20159;-71
2022/07/04 03:05:37;;;;;;;;;;;14.20;99.90;;;;;;5031074;28;19916;-70
2022/07/04 03:08:03;;;;;;;;;;;14.20;99.90;;;;;;5031700;28;20095;-70
2022/07/04 03:10:28;;;;;;;;;;;14.20;99.90;;;;;;5004221;28;19921;-70
2022/07/04 03:12:54;;;;;;;;;;;14.20;99.90;;;;;;5026170;28;19921;-70
2022/07/04 03:15:19;;;;;;;;;;;14.20;99.90;;;;;;4985777;28;19924;-70
2022/07/04 03:17:45;;;;;;;;;;;14.20;99.90;;;;;;5011418;28;19921;-70
2022/07/04 03:20:10;;;;;;;;;;;14.20;99.90;;;;;;4998117;28;20545;-70
2022/07/04 03:22:36;;;;;;;;;;;14.10;99.90;;;;;;5025765;28;19924;-70
2022/07/04 03:25:01;;;;;;;;;;;14.10;99.90;;;;;;5011724;28;19958;-70
2022/07/04 03:27:27;;;;;;;;;;;14.10;99.90;;;;;;5010852;28;19943;-70
2022/07/04 03:29:52;;;;;;;;;;;14.20;99.90;;;;;;4997408;28;19917;-70
2022/07/04 03:32:18;;;;;;;;;;;14.10;99.90;;;;;;5012220;28;19924;-70
2022/07/04 03:34:44;;;;;;;;;;;14.20;99.90;;;;;;5012760;28;19928;-70
2022/07/04 03:37:09;;;;;;;;;;;14.10;99.90;;;;;;5008070;28;20449;-70
2022/07/04 03:39:35;;;;;;;;;;;14.20;99.90;;;;;;5027903;28;20289;-70
2022/07/04 03:42:00;;;;;;;;;;;14.20;99.90;;;;;;5031614;28;19921;-70
2022/07/04 03:44:25;;;;;;;;;;;14.30;99.90;;;;;;5030099;28;19959;-70
2022/07/04 03:46:51;;;;;;;;;;;14.20;99.90;;;;;;5008011;28;20044;-70
2022/07/04 03:49:17;;;;;;;;;;;14.20;99.90;;;;;;5030016;28;19936;-70
2022/07/04 03:51:42;;;;;;;;;;;14.20;99.90;;;;;;5010533;28;19957;-70
2022/07/04 03:54:08;;;;;;;;;;;14.20;99.90;;;;;;5004182;28;19979;-70
2022/07/04 03:56:33;;;;;;;;;;;14.20;99.90;;;;;;5027860;28;20308;-70
2022/07/04 03:58:59;;;;;;;;;;;14.20;99.90;;;;;;5031052;28;20435;-70
2022/07/04 04:01:24;;;;;;;;;;;14.20;99.90;;;;;;5029781;28;20365;-70
2022/07/04 04:06:34;;;;;;;;;;;14.20;99.90;;;;;;5051978;22;20271;-70
2022/07/04 04:08:59;;;;;;;;;;;14.20;99.90;;;;;;5018732;28;20425;-70
2022/07/04 04:11:25;;;;;;;;;;;14.30;99.90;;;;;;5007132;28;19924;-70
2022/07/04 04:13:50;;;;;;;;;;;14.30;99.90;;;;;;5011221;28;19928;-70
2022/07/04 04:16:16;;;;;;;;;;;14.20;99.90;;;;;;5011277;28;20226;-70
2022/07/04 04:18:41;;;;;;;;;;;14.30;99.90;;;;;;5026425;28;20242;-69
2022/07/04 04:21:07;;;;;;;;;;;14.30;99.90;;;;;;5023551;28;20440;-70
2022/07/04 04:23:32;;;;;;;;;;;14.30;99.90;;;;;;5027399;28;20008;-70
2022/07/04 04:25:58;;;;;;;;;;;14.40;99.90;;;;;;5028801;28;19982;-70
2022/07/04 04:28:23;;;;;;;;;;;14.30;99.90;;;;;;5008354;28;20312;-70
2022/07/04 04:30:50;;;;;;;;;;;14.30;99.90;;;;;;5010746;28;19924;-70
2022/07/04 04:33:15;;;;;;;;;;;14.40;99.90;;;;;;5010756;28;20595;-70
2022/07/04 04:35:41;;;;;;;;;;;14.40;99.90;;;;;;5010249;28;19964;-70
2022/07/04 04:38:06;;;;;;;;;;;14.40;99.90;;;;;;5007352;28;19923;-70
2022/07/04 04:40:32;;;;;;;;;;;14.50;99.90;;;;;;5027921;28;20011;-71
2022/07/04 04:42:57;;;;;;;;;;;14.50;99.90;;;;;;5010959;28;20294;-70
2022/07/04 04:45:23;;;;;;;;;;;14.50;99.90;;;;;;5029002;28;20083;-70
2022/07/04 04:47:48;;;;;;;;;;;14.50;99.90;;;;;;5009464;28;20048;-70
2022/07/04 04:50:14;;;;;;;;;;;14.50;99.90;;;;;;5028376;28;19928;-70
2022/07/04 04:52:43;;;;;;;;;;;14.50;99.90;;;;;;4997375;28;20011;-70
2022/07/04 04:55:08;;;;;;;;;;;14.50;99.90;;;;;;5027106;28;19932;-70
2022/07/04 04:57:34;;;;;;;;;;;14.50;99.90;;;;;;5026490;28;20100;-70
2022/07/04 05:00:00;;;;;;;;;;;14.50;99.90;;;;;;5024168;28;19917;-70
2022/07/04 05:02:26;;;;;;;;;;;14.60;99.90;;;;;;4991252;28;19917;-70
2022/07/04 05:04:52;;;;;;;;;;;14.60;99.90;;;;;;5018236;28;19943;-70
2022/07/04 05:07:18;;;;;;;;;;;14.60;99.90;;;;;;5020938;28;19929;-70
2022/07/04 05:09:43;;;;;;;;;;;14.60;99.90;;;;;;5009626;28;19921;-70
2022/07/04 05:12:09;;;;;;;;;;;14.70;99.90;;;;;;5009314;28;19982;-70
2022/07/04 05:14:34;;;;;;;;;;;14.80;99.90;;;;;;5007276;28;19921;-70
2022/07/04 05:17:00;;;;;;;;;;;14.80;99.90;;;;;;5009663;28;19924;-70
2022/07/04 05:19:25;;;;;;;;;;;14.80;99.90;;;;;;5028379;28;19917;-70
2022/07/04 05:21:51;;;;;;;;;;;14.80;99.90;;;;;;5025587;28;19940;-70
2022/07/04 05:24:16;;;;;;;;;;;14.90;99.90;;;;;;5001258;28;19939;-70
2022/07/04 05:26:42;;;;;;;;;;;14.90;99.90;;;;;;5008890;28;20093;-70
2022/07/04 05:29:07;;;;;;;;;;;15.00;99.90;;;;;;5009832;28;20283;-70
2022/07/04 05:31:33;;;;;;;;;;;15.00;99.90;;;;;;5025692;28;20047;-70
2022/07/04 05:33:58;;;;;;;;;;;15.10;99.90;;;;;;5027684;28;20008;-70
2022/07/04 05:36:24;;;;;;;;;;;15.10;99.90;;;;;;5027353;28;19929;-70
2022/07/04 05:38:50;;;;;;;;;;;15.20;99.90;;;;;;5025508;28;19917;-70
2022/07/04 05:41:15;;;;;;;;;;;15.20;99.90;;;;;;5009748;28;20398;-70
2022/07/04 05:43:41;;;;;;;;;;;15.30;99.90;;;;;;5008706;28;20004;-70
2022/07/04 05:46:07;;;;;;;;;;;15.40;99.90;;;;;;5008918;28;20000;-70
2022/07/04 05:48:32;;;;;;;;;;;15.40;99.90;;;;;;5024836;28;19917;-70
2022/07/04 05:50:58;;;;;;;;;;;15.50;99.90;;;;;;5025328;28;20072;-70
2022/07/04 05:53:23;;;;;;;;;;;15.50;99.90;;;;;;5025823;28;19983;-70
2022/07/04 05:55:49;;;;;;;;;;;15.50;99.90;;;;;;4991643;28;20507;-71
2022/07/04 05:58:15;;;;;;;;;;;15.60;99.90;;;;;;5004315;28;19921;-70
2022/07/04 06:00:41;;;;;;;;;;;15.70;99.90;;;;;;5008995;28;20007;-70
2022/07/04 06:03:07;;;;;;;;;;;15.70;99.90;;;;;;5027184;28;19928;-70
2022/07/04 06:05:33;;;;;;;;;;;15.80;99.90;;;;;;5007329;28;20024;-70
2022/07/04 06:07:58;;;;;;;;;;;15.90;99.90;;;;;;5027763;28;19917;-70
2022/07/04 06:10:24;;;;;;;;;;;16.00;99.90;;;;;;5027196;28;20012;-70
2022/07/04 06:12:49;;;;;;;;;;;16.00;99.90;;;;;;5023998;28;20011;-70
2022/07/04 06:15:15;;;;;;;;;;;16.10;99.90;;;;;;5021846;28;20057;-70
2022/07/04 06:17:41;;;;;;;;;;;16.20;99.90;;;;;;5008281;28;20004;-70
2022/07/04 06:20:07;;;;;;;;;;;16.30;99.90;;;;;;5026853;28;20429;-70
2022/07/04 06:22:42;;;;;;;;;;;16.30;99.90;;;;;;5024710;28;20356;-70
2022/07/04 06:25:18;;;;;;;;;;;16.40;99.90;;;;;;4993190;28;19928;-70
2022/07/04 06:27:44;;;;;;;;;;;16.40;99.90;;;;;;5025291;28;19921;-70
2022/07/04 06:30:09;;;;;;;;;;;16.60;99.90;;;;;;5025749;28;19928;-70
2022/07/04 06:32:45;;;;;;;;;;;16.70;99.90;;;;;;5006770;28;19917;-70
2022/07/04 06:37:55;;;;;;;;;;;16.90;99.90;;;;;;5008838;28;19917;-70
2022/07/04 06:40:21;;;;;;;;;;;17.00;99.90;;;;;;5026278;28;19928;-70
2022/07/04 06:42:47;;;;;;;;;;;17.10;99.90;;;;;;5027178;28;20404;-70
2022/07/04 06:45:12;;;;;;;;;;;17.20;99.90;;;;;;5026300;28;19968;-71
2022/07/04 06:47:38;;;;;;;;;;;17.20;99.90;;;;;;5009013;28;20333;-71
2022/07/04 06:50:04;;;;;;;;;;;17.30;99.90;;;;;;5008315;28;19974;-71
2022/07/04 06:52:29;;;;;;;;;;;17.30;99.90;;;;;;4988288;28;20003;-70
2022/07/04 06:54:55;;;;;;;;;;;17.40;99.90;;;;;;5027130;28;19932;-72
2022/07/04 06:57:20;;;;;;;;;;;17.40;99.90;;;;;;5025603;28;19940;-71
2022/07/04 06:59:46;;;;;;;;;;;17.50;99.90;;;;;;5009185;28;19928;-70
2022/07/04 07:02:11;;;;;;;;;;;17.60;99.90;;;;;;5025298;28;19920;-71
2022/07/04 07:04:38;;;;;;;;;;;17.60;99.90;;;;;;5023567;28;19917;-71
2022/07/04 07:07:03;;;;;;;;;;;17.70;99.90;;;;;;4992335;28;20025;-71
2022/07/04 07:09:29;;;;;;;;;;;17.80;99.90;;;;;;5008056;28;20039;-71
2022/07/04 07:11:54;;;;;;;;;;;17.80;99.90;;;;;;5026356;28;19997;-71
2022/07/04 07:14:20;;;;;;;;;;;17.80;99.90;;;;;;5003937;28;20381;-71
2022/07/04 07:16:45;;;;;;;;;;;17.80;99.90;;;;;;5026692;28;19959;-71
2022/07/04 07:19:11;;;;;;;;;;;17.90;99.90;;;;;;5026799;28;19917;-71
2022/07/04 07:21:36;;;;;;;;;;;17.90;99.90;;;;;;5005360;28;19926;-70
2022/07/04 07:24:03;;;;;;;;;;;17.90;99.90;;;;;;5026353;28;19917;-70
2022/07/04 07:26:29;;;;;;;;;;;17.90;99.90;;;;;;5026380;28;19939;-71
2022/07/04 07:28:55;;;;;;;;;;;17.90;99.90;;;;;;5009017;28;20258;-71
2022/07/04 07:31:20;;;;;;;;;;;17.90;99.90;;;;;;5015180;28;20008;-71
2022/07/04 07:33:46;;;;;;;;;;;17.80;99.90;;;;;;5025760;28;20473;-70
2022/07/04 07:36:11;;;;;;;;;;;17.80;99.90;;;;;;5008742;28;19964;-70
2022/07/04 07:38:37;;;;;;;;;;;17.80;99.90;;;;;;5010116;28;20331;-71
2022/07/04 07:41:03;;;;;;;;;;;17.80;99.90;;;;;;5030229;28;19922;-70
2022/07/04 07:43:29;;;;;;;;;;;17.70;99.90;;;;;;5029573;28;20382;-70
2022/07/04 07:45:55;;;;;;;;;;;17.70;99.90;;;;;;5012729;28;20273;-70
2022/07/04 07:48:21;;;;;;;;;;;17.70;99.90;;;;;;5010884;28;20409;-71
2022/07/04 07:50:46;;;;;;;;;;;17.70;99.90;;;;;;5012021;28;20000;-70
2022/07/04 07:53:12;;;;;;;;;;;17.70;99.90;;;;;;5029453;28;19921;-70
2022/07/04 07:55:37;;;;;;;;;;;17.70;99.90;;;;;;5029815;28;20332;-70
2022/07/04 07:58:03;;;;;;;;;;;17.70;99.90;;;;;;5011104;28;19920;-71
2022/07/04 08:00:28;;;;;;;;;;;17.70;99.90;;;;;;5029346;28;19936;-70
2022/07/04 08:05:38;;;;;;;;;;;17.70;99.90;;;;;;5011572;28;19921;-71
2022/07/04 08:08:04;;;;;;;;;;;17.80;99.90;;;;;;5024710;28;20225;-71
2022/07/04 08:10:30;;;;;;;;;;;17.80;99.90;;;;;;5029359;28;19924;-70
2022/07/04 08:12:55;;;;;;;;;;;17.90;99.90;;;;;;5011317;28;19924;-71
2022/07/04 08:15:21;;;;;;;;;;;17.90;99.90;;;;;;5006917;28;20301;-70
2022/07/04 08:17:47;;;;;;;;;;;18.00;99.90;;;;;;5029199;28;20350;-70
2022/07/04 08:20:12;;;;;;;;;;;18.00;99.90;;;;;;5012275;28;19917;-71
2022/07/04 08:22:38;;;;;;;;;;;18.10;99.90;;;;;;5026643;28;20012;-71
2022/07/04 08:25:03;;;;;;;;;;;18.20;99.90;;;;;;5029666;28;19921;-71
2022/07/04 08:27:29;;;;;;;;;;;18.40;99.90;;;;;;5029400;28;19917;-70
2022/07/04 08:29:54;;;;;;;;;;;18.50;99.90;;;;;;5020614;28;19971;-71
2022/07/04 08:32:20;;;;;;;;;;;18.50;99.90;;;;;;5025512;28;19921;-70
2022/07/04 08:34:46;;;;;;;;;;;18.50;99.90;;;;;;5010821;28;19971;-71
2022/07/04 08:37:12;;;;;;;;;;;18.50;99.90;;;;;;5029013;28;19924;-70
2022/07/04 08:39:37;;;;;;;;;;;18.60;99.90;;;;;;4992764;28;19971;-71
2022/07/04 08:42:05;;;;;;;;;;;18.60;99.90;;;;;;5011657;28;19989;-71
2022/07/04 08:44:33;;;;;;;;;;;18.70;99.90;;;;;;5011583;28;19917;-70
2022/07/04 08:46:59;;;;;;;;;;;18.70;99.90;;;;;;5010401;28;19929;-71
2022/07/04 08:49:29;;;;;;;;;;;18.70;99.90;;;;;;5018882;28;19923;-71
2022/07/04 08:52:03;;;;;;;;;;;18.70;99.90;;;;;;5011347;28;19928;-71
2022/07/04 08:59:58;;;;;;;;;;;18.80;99.90;;;;;;5010702;28;19983;-71
2022/07/04 09:02:26;;;;;;;;;;;18.80;99.90;;;;;;5028241;28;20024;-71
2022/07/04 09:04:52;;;;;;;;;;;18.90;99.90;;;;;;5014167;28;19925;-70
2022/07/04 09:07:18;;;;;;;;;;;19.10;99.90;;;;;;5023534;28;19996;-71
2022/07/04 09:09:44;;;;;;;;;;;19.20;99.90;;;;;;5010595;28;19953;-71
2022/07/04 09:12:10;;;;;;;;;;;19.30;99.90;;;;;;5021739;28;20009;-71
2022/07/04 09:14:36;;;;;;;;;;;19.30;99.90;;;;;;5010711;28;20416;-70
2022/07/04 09:17:02;;;;;;;;;;;19.30;99.90;;;;;;5010322;28;19917;-71
2022/07/04 09:19:27;;;;;;;;;;;19.30;99.90;;;;;;5028475;28;20076;-70
2022/07/04 09:21:53;;;;;;;;;;;19.30;99.90;;;;;;5024568;28;19927;-71
2022/07/04 09:24:37;;;;;;;;;;;19.20;99.90;;;;;;5028048;28;19917;-71
2022/07/04 09:27:03;;;;;;;;;;;19.10;99.90;;;;;;5009943;28;20341;-71
2022/07/04 09:29:28;;;;;;;;;;;19.00;99.90;;;;;;5025345;28;19921;-68
2022/07/04 09:31:54;;;;;;;;;;;19.10;99.90;;;;;;5027767;28;19966;-68
2022/07/04 09:34:20;;;;;;;;;;;19.00;99.90;;;;;;5028160;28;19927;-68
2022/07/04 09:36:51;;;;;;;;;;;18.90;99.90;;;;;;5027076;28;19917;-69
2022/07/04 09:39:21;;;;;;;;;;;18.90;99.90;;;;;;5022265;28;19917;-69
2022/07/04 09:41:55;;;;;;;;;;;18.90;99.90;;;;;;5010435;28;19923;-68
2022/07/04 09:44:22;;;;;;;;;;;19.10;99.90;;;;;;5010582;28;20011;-68
2022/07/04 09:46:48;;;;;;;;;;;19.20;99.90;;;;;;5027765;28;19924;-68
2022/07/04 09:49:14;;;;;;;;;;;19.30;99.90;;;;;;5022621;28;20368;-68
2022/07/04 09:51:41;;;;;;;;;;;19.30;99.90;;;;;;5009430;28;20262;-69
2022/07/04 09:54:12;;;;;;;;;;;19.50;99.90;;;;;;5026382;28;19996;-68
2022/07/04 09:56:45;;;;;;;;;;;19.60;99.90;;;;;;5007620;28;19961;-69
2022/07/04 09:59:11;;;;;;;;;;;19.70;99.90;;;;;;4993106;28;19916;-67
2022/07/04 10:01:38;;;;;;;;;;;19.90;99.90;;;;;;5028070;28;19963;-68
2022/07/04 10:04:04;;;;;;;;;;;19.90;99.90;;;;;;5007666;28;20466;-68
2022/07/04 10:09:18;;;;;;;;;;;19.80;99.90;;;;;;5038769;28;19967;-71
2022/07/04 10:11:45;;;;;;;;;;;19.90;99.90;;;;;;5026987;28;19930;-70
2022/07/04 10:14:11;;;;;;;;;;;20.00;99.90;;;;;;5027932;28;19917;-70
2022/07/04 10:16:38;;;;;;;;;;;20.10;99.90;;;;;;5025159;28;19965;-71
2022/07/04 10:19:04;;;;;;;;;;;20.20;99.90;;;;;;5028269;28;20208;-69
2022/07/04 10:21:30;;;;;;;;;;;20.30;99.90;;;;;;5030046;28;20281;-70
2022/07/04 10:23:56;;;;;;;;;;;20.20;99.90;;;;;;5032106;28;19936;-70
2022/07/04 10:26:25;;;;;;;;;;;20.20;99.90;;;;;;5025260;28;20362;-70
2022/07/04 10:28:52;;;;;;;;;;;20.10;99.90;;;;;;5035351;28;20385;-70
2022/07/04 10:31:21;;;;;;;;;;;20.20;99.90;;;;;;5025810;28;19924;-70
2022/07/04 10:33:47;;;;;;;;;;;20.30;99.90;;;;;;5025779;28;19923;-70
2022/07/04 10:36:20;;;;;;;;;;;20.20;99.90;;;;;;5009054;28;19925;-70
2022/07/04 10:38:51;;;;;;;;;;;20.20;99.90;;;;;;5026067;28;19917;-70
2022/07/04 10:41:21;;;;;;;;;;;20.10;99.90;;;;;;5026842;28;19917;-71
2022/07/04 10:44:07;;;;;;;;;;;20.20;99.90;;;;;;5047246;28;20304;-70
2022/07/04 10:46:37;;;;;;;;;;;20.30;99.90;;;;;;5028960;28;19921;-70
2022/07/04 10:49:06;;;;;;;;;;;20.30;99.90;;;;;;5029532;28;19975;-70
2022/07/04 10:51:45;;;;;;;;;;;20.30;99.90;;;;;;5037357;28;20464;-69
2022/07/04 10:54:30;;;;;;;;;;;20.30;99.90;;;;;;5009277;28;19988;-70
2022/07/04 10:57:10;;;;;;;;;;;20.30;99.90;;;;;;5025594;28;19923;-70
2022/07/04 10:59:36;;;;;;;;;;;20.40;99.90;;;;;;5026261;28;19979;-70
2022/07/04 11:02:08;;;;;;;;;;;20.30;99.90;;;;;;5026896;28;19936;-70
2022/07/04 11:04:47;;;;;;;;;;;20.40;99.90;;;;;;5027302;28;19917;-70
2022/07/04 11:07:12;;;;;;;;;;;20.50;99.90;;;;;;5025844;28;20124;-70
2022/07/04 11:09:38;;;;;;;;;;;20.60;96.20;;;;;;5027255;28;19967;-70
2022/07/04 11:12:07;;;;;;;;;;;20.50;96.30;;;;;;5032743;28;19916;-71
2022/07/04 11:14:41;;;;;;;;;;;20.60;99.50;;;;;;5031992;28;19925;-69
2022/07/04 11:17:06;;;;;;;;;;;20.60;96.60;;;;;;5033804;28;20293;-69
2022/07/04 11:19:32;;;;;;;;;;;20.70;99.90;;;;;;5041584;28;19999;-70
2022/07/04 11:21:58;;;;;;;;;;;20.80;99.90;;;;;;5037531;28;19917;-70
2022/07/04 11:24:24;;;;;;;;;;;20.90;99.30;;;;;;5052935;28;20043;-70
2022/07/04 11:26:50;;;;;;;;;;;20.90;99.90;;;;;;5041173;28;19917;-71
2022/07/04 11:29:16;;;;;;;;;;;20.90;99.90;;;;;;5050983;28;19998;-70
2022/07/04 11:31:46;;;;;;;;;;;20.90;99.90;;;;;;5050620;28;19977;-70
2022/07/04 11:34:11;;;;;;;;;;;20.90;99.90;;;;;;5042524;28;19917;-71
2022/07/04 11:36:41;;;;;;;;;;;20.90;99.90;;;;;;5030407;28;19928;-70
2022/07/04 11:39:07;;;;;;;;;;;20.90;99.90;;;;;;5029546;28;20031;-70
2022/07/04 11:47:19;;;;;;;;;;;21.00;99.90;;;;;;5030720;28;20293;-70
2022/07/04 11:49:46;;;;;;;;;;;20.80;99.90;;;;;;5043915;28;20121;-70
2022/07/04 11:52:12;;;;;;;;;;;20.50;99.90;;;;;;5040042;28;19927;-70
2022/07/04 11:54:42;;;;;;;;;;;20.50;99.90;;;;;;5031012;28;19921;-70
2022/07/04 11:57:08;;;;;;;;;;;20.60;99.90;;;;;;5030407;28;19921;-70
2022/07/04 11:59:34;;;;;;;;;;;20.70;99.90;;;;;;5030116;28;20012;-69
2022/07/04 12:02:09;;;;;;;;;;;20.80;99.90;;;;;;5034735;28;20007;-70
2022/07/04 12:04:34;;;;;;;;;;;20.90;99.90;;;;;;5048495;28;19987;-70
2022/07/04 12:07:07;;;;;;;;;;;20.80;99.90;;;;;;5050086;28;19916;-71
2022/07/04 12:09:33;;;;;;;;;;;21.00;99.90;;;;;;5042344;28;19986;-70
2022/07/04 12:11:59;;;;;;;;;;;21.10;99.90;;;;;;5042511;28;19916;-70
2022/07/04 12:14:26;;;;;;;;;;;20.90;99.90;;;;;;5050535;28;20389;-70
2022/07/04 12:17:10;;;;;;;;;;;20.90;99.90;;;;;;5048116;28;19920;-69
2022/07/04 12:19:35;;;;;;;;;;;21.00;99.90;;;;;;5036812;28;19917;-69
2022/07/04 12:22:01;;;;;;;;;;;21.20;99.90;;;;;;5042514;28;19967;-70
2022/07/04 12:24:27;;;;;;;;;;;21.20;99.90;;;;;;5049192;28;20297;-70
2022/07/04 12:26:53;;;;;;;;;;;21.10;84.70;;;;;;5039251;28;19921;-70
2022/07/04 12:29:24;;;;;;;;;;;21.00;94.80;;;;;;5036788;28;20306;-70
2022/07/04 12:31:53;;;;;;;;;;;20.80;97.50;;;;;;5029714;28;20012;-70
2022/07/04 12:34:19;;;;;;;;;;;20.80;98.70;;;;;;5011539;28;19916;-70
2022/07/04 12:36:54;;;;;;;;;;;20.90;97.10;;;;;;5035815;28;19927;-70
2022/07/04 12:39:30;;;;;;;;;;;21.00;92.60;;;;;;5036322;28;20270;-69
2022/07/04 12:42:11;;;;;;;;;;;21.00;91.10;;;;;;5028845;28;19971;-70
2022/07/04 12:44:37;;;;;;;;;;;21.10;92.40;;;;;;5014854;28;19924;-69
2022/07/04 12:47:04;;;;;;;;;;;21.20;94.60;;;;;;5039356;28;19920;-69
2022/07/04 12:49:30;;;;;;;;;;;21.30;92.40;;;;;;5049376;28;19923;-69
2022/07/04 12:52:05;;;;;;;;;;;21.50;91.40;;;;;;5047333;28;19916;-70
2022/07/04 12:54:31;;;;;;;;;;;21.50;90.20;;;;;;5047759;28;19917;-70
2022/07/04 12:57:04;;;;;;;;;;;21.50;92.50;;;;;;5048897;28;20007;-69
2022/07/04 12:59:30;;;;;;;;;;;21.40;86.00;;;;;;5049117;28;20341;-70
2022/07/04 13:01:55;;;;;;;;;;;21.40;87.20;;;;;;5043161;28;19917;-70
2022/07/04 13:04:21;;;;;;;;;;;21.20;83.40;;;;;;5027621;28;19944;-71
2022/07/04 13:06:46;;;;;;;;;;;21.00;89.90;;;;;;5027578;28;20400;-70
2022/07/04 13:09:12;;;;;;;;;;;21.10;94.30;;;;;;5028536;28;19986;-70
2022/07/04 13:14:22;;;;;;;;;;;21.30;99.00;;;;;;5034808;28;19917;-70
2022/07/04 13:16:48;;;;;;;;;;;21.40;96.40;;;;;;5029130;28;20298;-70
2022/07/04 13:19:13;;;;;;;;;;;21.40;96.50;;;;;;5028890;28;19917;-70
2022/07/04 13:21:39;;;;;;;;;;;21.60;92.90;;;;;;5034877;28;20331;-70
2022/07/04 13:24:04;;;;;;;;;;;21.60;93.50;;;;;;5043927;28;20406;-70
2022/07/04 13:26:32;;;;;;;;;;;21.50;93.20;;;;;;5047224;28;19917;-70
2022/07/04 13:28:57;;;;;;;;;;;21.30;95.10;;;;;;5045881;28;19916;-70
2022/07/04 13:31:23;;;;;;;;;;;21.20;97.80;;;;;;5026770;28;20063;-70
2022/07/04 13:33:48;;;;;;;;;;;21.40;98.50;;;;;;5028506;28;20373;-70
2022/07/04 13:36:14;;;;;;;;;;;21.50;95.50;;;;;;5028178;28;19980;-70
2022/07/04 13:38:40;;;;;;;;;;;21.70;95.80;;;;;;5037852;28;19956;-71
2022/07/04 13:41:06;;;;;;;;;;;21.90;94.10;;;;;;5030755;28;20058;-70
2022/07/04 13:43:31;;;;;;;;;;;21.60;92.50;;;;;;5046964;28;20211;-70
2022/07/04 13:45:57;;;;;;;;;;;21.50;95.30;;;;;;5042577;28;19919;-70
2022/07/04 13:48:24;;;;;;;;;;;21.60;97.50;;;;;;5043205;28;19925;-70
2022/07/04 13:50:50;;;;;;;;;;;21.70;99.30;;;;;;5043623;28;19921;-70
2022/07/04 13:53:15;;;;;;;;;;;21.80;89.80;;;;;;5035879;28;20312;-70
2022/07/04 13:55:41;;;;;;;;;;;21.70;92.70;;;;;;5027125;28;19939;-70
2022/07/04 13:58:07;;;;;;;;;;;21.70;92.80;;;;;;5047087;28;20360;-70
2022/07/04 14:00:33;;;;;;;;;;;21.70;96.70;;;;;;5047699;28;19920;-70
2022/07/04 14:02:59;;;;;;;;;;;21.60;90.80;;;;;;5047049;28;19952;-69
2022/07/04 14:05:25;;;;;;;;;;;21.30;87.10;;;;;;5030787;28;19964;-70
2022/07/04 14:07:51;;;;;;;;;;;21.50;90.90;;;;;;5028235;28;19996;-70
2022/07/04 14:10:16;;;;;;;;;;;21.50;91.30;;;;;;5028601;28;20381;-69
2022/07/04 14:12:42;;;;;;;;;;;21.60;82.60;;;;;;5028331;28;19921;-70
2022/07/04 14:15:08;;;;;;;;;;;21.70;90.80;;;;;;5028286;28;19921;-70
2022/07/04 14:17:35;;;;;;;;;;;21.80;86.40;;;;;;5043672;28;19920;-70
2022/07/04 14:20:00;;;;;;;;;;;22.10;91.60;;;;;;5047767;28;19917;-70
2022/07/04 14:22:26;;;;;;;;;;;22.30;90.30;;;;;;5042023;28;19929;-70
2022/07/04 14:24:51;;;;;;;;;;;22.10;73.30;;;;;;5027099;28;20299;-70
2022/07/04 14:27:17;;;;;;;;;;;22.10;81.90;;;;;;5028180;28;20143;-70
2022/07/04 14:29:42;;;;;;;;;;;22.20;79.80;;;;;;5035859;28;19929;-70
2022/07/04 14:32:08;;;;;;;;;;;22.30;88.50;;;;;;5047591;28;19917;-70
2022/07/04 14:34:34;;;;;;;;;;;22.40;90.70;;;;;;5045505;28;20377;-70
2022/07/04 14:37:00;;;;;;;;;;;22.40;89.10;;;;;;5046151;28;19921;-70
2022/07/04 14:39:27;;;;;;;;;;;22.40;88.70;;;;;;5036291;28;19917;-69
2022/07/04 14:41:53;;;;;;;;;;;22.40;80.60;;;;;;5028434;28;19921;-70